sensor_id;sensor_type;location;lat;lon;timestamp;temperature;humidity
23100;DHT22;53791;50.696;4.396;2023-06-14T00:01:22;21.00;99.90
23100;DHT22;53791;50.696;4.396;2023-06-14T00:03:50;21.00;99.90
23100;DHT22;53791;50.696;4.396;2023-06-14T00:06:17;21.00;99.90
23100;DHT22;53791;50.696;4.396;2023-06-14T00:08:45;20.90;99.90
23100;DHT22;53791;50.696;4.396;2023-06-14T00:11:12;20.80;99.90
23100;DHT22;53791;50.696;4.396;2023-06-14T00:13:40;20.70;99.90
23100;DHT22;53791;50.696;4.396;2023-06-14T00:16:09;20.70;99.90
23100;DHT22;53791;50.696;4.396;2023-06-14T00:18:36;20.70;99.90
23100;DHT22;53791;50.696;4.396;2023-06-14T00:21:07;20.60;99.90
23100;DHT22;53791;50.696;4.396;2023-06-14T00:23:39;20.60;99.90
23100;DHT22;53791;50.696;4.396;2023-06-14T00:26:11;20.60;99.90
23100;DHT22;53791;50.696;4.396;2023-06-14T00:28:37;20.50;99.90
23100;DHT22;53791;50.696;4.396;2023-06-14T00:31:06;20.60;99.90
23100;DHT22;53791;50.696;4.396;2023-06-14T00:33:33;20.60;99.90
23100;DHT22;53791;50.696;4.396;2023-06-14T00:36:01;20.60;99.90
23100;DHT22;53791;50.696;4.396;2023-06-14T00:38:30;20.50;99.90
23100;DHT22;53791;50.696;4.396;2023-06-14T00:40:57;20.50;99.90
23100;DHT22;53791;50.696;4.396;2023-06-14T00:43:25;20.50;99.90
23100;DHT22;53791;50.696;4.396;2023-06-14T00:45:54;20.50;99.90
23100;DHT22;53791;50.696;4.396;2023-06-14T00:48:24;20.60;99.90
23100;DHT22;53791;50.696;4.396;2023-06-14T00:50:52;20.60;99.90
23100;DHT22;53791;50.696;4.396;2023-06-14T00:53:21;20.50;99.90
23100;DHT22;53791;50.696;4.396;2023-06-14T00:55:51;20.40;99.90
23100;DHT22;53791;50.696;4.396;2023-06-14T00:58:19;20.40;99.90
23100;DHT22;53791;50.696;4.396;2023-06-14T01:00:48;20.30;99.90
23100;DHT22;53791;50.696;4.396;2023-06-14T01:03:17;20.30;99.90
23100;DHT22;53791;50.696;4.396;2023-06-14T01:05:47;20.30;99.90
23100;DHT22;53791;50.696;4.396;2023-06-14T01:08:28;20.20;99.90
23100;DHT22;53791;50.696;4.396;2023-06-14T01:13:32;20.20;99.90
23100;DHT22;53791;50.696;4.396;2023-06-14T01:15:56;20.30;99.90
23100;DHT22;53791;50.696;4.396;2023-06-14T01:18:23;20.30;99.90
23100;DHT22;53791;50.696;4.396;2023-06-14T01:20:52;20.20;99.90
23100;DHT22;53791;50.696;4.396;2023-06-14T01:23:22;20.20;99.90
23100;DHT22;53791;50.696;4.396;2023-06-14T01:25:50;20.10;99.90
23100;DHT22;53791;50.696;4.396;2023-06-14T01:28:22;20.00;99.90
23100;DHT22;53791;50.696;4.396;2023-06-14T01:30:53;20.00;99.90
23100;DHT22;53791;50.696;4.396;2023-06-14T01:33:26;20.00;99.90
23100;DHT22;53791;50.696;4.396;2023-06-14T01:35:55;19.90;99.90
23100;DHT22;53791;50.696;4.396;2023-06-14T01:38:25;19.90;99.90
23100;DHT22;53791;50.696;4.396;2023-06-14T01:40:55;19.90;99.90
23100;DHT22;53791;50.696;4.396;2023-06-14T01:43:24;19.90;99.90
23100;DHT22;53791;50.696;4.396;2023-06-14T01:45:54;19.80;99.90
23100;DHT22;53791;50.696;4.396;2023-06-14T01:48:23;19.70;99.90
23100;DHT22;53791;50.696;4.396;2023-06-14T01:50:53;19.60;99.90
23100;DHT22;53791;50.696;4.396;2023-06-14T01:53:22;19.50;99.90
23100;DHT22;53791;50.696;4.396;2023-06-14T01:55:49;19.40;99.90
23100;DHT22;53791;50.696;4.396;2023-06-14T01:58:19;19.40;99.90
23100;DHT22;53791;50.696;4.396;2023-06-14T02:00:48;19.40;99.90
23100;DHT22;53791;50.696;4.396;2023-06-14T02:03:15;19.40;99.90
23100;DHT22;53791;50.696;4.396;2023-06-14T02:05:43;19.30;99.90
23100;DHT22;53791;50.696;4.396;2023-06-14T02:08:11;19.30;99.90
23100;DHT22;53791;50.696;4.396;2023-06-14T02:10:46;19.30;99.90
23100;DHT22;53791;50.696;4.396;2023-06-14T02:13:09;19.40;99.90
23100;DHT22;53791;50.696;4.396;2023-06-14T02:15:36;19.50;99.90
23100;DHT22;53791;50.696;4.396;2023-06-14T02:18:09;19.40;99.90
23100;DHT22;53791;50.696;4.396;2023-06-14T02:20:34;19.30;99.90
23100;DHT22;53791;50.696;4.396;2023-06-14T02:23:02;19.20;99.90
23100;DHT22;53791;50.696;4.396;2023-06-14T02:25:30;19.20;99.90
23100;DHT22;53791;50.696;4.396;2023-06-14T02:27:57;19.30;99.90
23100;DHT22;53791;50.696;4.396;2023-06-14T02:30:25;19.30;99.90
23100;DHT22;53791;50.696;4.396;2023-06-14T02:32:52;19.30;99.90
23100;DHT22;53791;50.696;4.396;2023-06-14T02:35:20;19.20;99.90
23100;DHT22;53791;50.696;4.396;2023-06-14T02:37:49;19.10;99.90
23100;DHT22;53791;50.696;4.396;2023-06-14T02:40:17;19.10;99.90
23100;DHT22;53791;50.696;4.396;2023-06-14T02:42:45;19.20;99.90
23100;DHT22;53791;50.696;4.396;2023-06-14T02:45:12;19.20;99.90
23100;DHT22;53791;50.696;4.396;2023-06-14T02:47:40;19.10;99.90
23100;DHT22;53791;50.696;4.396;2023-06-14T02:50:09;19.10;99.90
23100;DHT22;53791;50.696;4.396;2023-06-14T02:52:38;19.10;99.90
23100;DHT22;53791;50.696;4.396;2023-06-14T02:55:07;19.10;99.90
23100;DHT22;53791;50.696;4.396;2023-06-14T02:57:37;19.00;99.90
23100;DHT22;53791;50.696;4.396;2023-06-14T03:00:05;18.90;99.90
23100;DHT22;53791;50.696;4.396;2023-06-14T03:02:34;19.00;99.90
23100;DHT22;53791;50.696;4.396;2023-06-14T03:05:02;18.90;99.90
23100;DHT22;53791;50.696;4.396;2023-06-14T03:07:31;18.90;99.90
23100;DHT22;53791;50.696;4.396;2023-06-14T03:10:01;18.90;99.90
23100;DHT22;53791;50.696;4.396;2023-06-14T03:12:29;18.80;99.90
23100;DHT22;53791;50.696;4.396;2023-06-14T03:14:57;18.80;99.90
23100;DHT22;53791;50.696;4.396;2023-06-14T03:17:28;18.70;99.90
23100;DHT22;53791;50.696;4.396;2023-06-14T03:20:02;18.60;99.90
23100;DHT22;53791;50.696;4.396;2023-06-14T03:22:28;18.50;99.90
23100;DHT22;53791;50.696;4.396;2023-06-14T03:24:57;18.50;99.90
23100;DHT22;53791;50.696;4.396;2023-06-14T03:27:25;18.50;99.90
23100;DHT22;53791;50.696;4.396;2023-06-14T03:29:55;18.40;99.90
23100;DHT22;53791;50.696;4.396;2023-06-14T03:32:25;18.40;99.90
23100;DHT22;53791;50.696;4.396;2023-06-14T03:34:51;18.30;99.90
23100;DHT22;53791;50.696;4.396;2023-06-14T03:37:20;18.30;99.90
23100;DHT22;53791;50.696;4.396;2023-06-14T03:39:47;18.10;99.90
23100;DHT22;53791;50.696;4.396;2023-06-14T03:42:17;18.20;99.90
23100;DHT22;53791;50.696;4.396;2023-06-14T03:44:46;18.10;99.90
23100;DHT22;53791;50.696;4.396;2023-06-14T03:47:13;18.00;99.90
23100;DHT22;53791;50.696;4.396;2023-06-14T03:49:41;17.90;99.90
23100;DHT22;53791;50.696;4.396;2023-06-14T03:52:09;17.80;99.90
23100;DHT22;53791;50.696;4.396;2023-06-14T03:54:38;17.80;99.90
23100;DHT22;53791;50.696;4.396;2023-06-14T03:57:05;17.70;99.90
23100;DHT22;53791;50.696;4.396;2023-06-14T03:59:33;17.60;99.90
23100;DHT22;53791;50.696;4.396;2023-06-14T04:02:01;17.60;99.90
23100;DHT22;53791;50.696;4.396;2023-06-14T04:04:29;17.50;99.90
23100;DHT22;53791;50.696;4.396;2023-06-14T04:06:56;17.40;99.90
23100;DHT22;53791;50.696;4.396;2023-06-14T04:09:34;17.30;99.90
23100;DHT22;53791;50.696;4.396;2023-06-14T04:11:54;17.30;99.90
23100;DHT22;53791;50.696;4.396;2023-06-14T04:14:22;17.30;99.90
23100;DHT22;53791;50.696;4.396;2023-06-14T04:16:51;17.30;99.90
23100;DHT22;53791;50.696;4.396;2023-06-14T04:19:19;17.30;99.90
23100;DHT22;53791;50.696;4.396;2023-06-14T04:21:46;17.30;99.90
23100;DHT22;53791;50.696;4.396;2023-06-14T04:24:13;17.20;99.90
23100;DHT22;53791;50.696;4.396;2023-06-14T04:26:44;17.10;99.90
23100;DHT22;53791;50.696;4.396;2023-06-14T04:29:14;17.00;99.90
23100;DHT22;53791;50.696;4.396;2023-06-14T04:31:43;16.90;99.90
23100;DHT22;53791;50.696;4.396;2023-06-14T04:34:11;16.80;99.90
23100;DHT22;53791;50.696;4.396;2023-06-14T04:36:45;16.80;99.90
23100;DHT22;53791;50.696;4.396;2023-06-14T04:39:20;16.80;99.90
23100;DHT22;53791;50.696;4.396;2023-06-14T04:41:48;16.80;99.90
23100;DHT22;53791;50.696;4.396;2023-06-14T04:44:18;16.70;99.90
23100;DHT22;53791;50.696;4.396;2023-06-14T04:46:47;16.60;99.90
23100;DHT22;53791;50.696;4.396;2023-06-14T04:49:15;16.60;99.90
23100;DHT22;53791;50.696;4.396;2023-06-14T04:51:45;16.60;99.90
23100;DHT22;53791;50.696;4.396;2023-06-14T04:54:13;16.60;99.90
23100;DHT22;53791;50.696;4.396;2023-06-14T04:56:45;16.70;99.90
23100;DHT22;53791;50.696;4.396;2023-06-14T04:59:13;16.70;99.90
23100;DHT22;53791;50.696;4.396;2023-06-14T05:01:42;16.80;99.90
23100;DHT22;53791;50.696;4.396;2023-06-14T05:04:11;16.90;99.90
23100;DHT22;53791;50.696;4.396;2023-06-14T05:06:41;16.90;99.90
23100;DHT22;53791;50.696;4.396;2023-06-14T05:09:17;17.00;99.90
23100;DHT22;53791;50.696;4.396;2023-06-14T05:11:43;17.10;99.90
23100;DHT22;53791;50.696;4.396;2023-06-14T05:14:11;17.10;99.90
23100;DHT22;53791;50.696;4.396;2023-06-14T05:16:39;17.10;99.90
23100;DHT22;53791;50.696;4.396;2023-06-14T05:19:09;17.20;99.90
23100;DHT22;53791;50.696;4.396;2023-06-14T05:21:37;17.20;99.90
23100;DHT22;53791;50.696;4.396;2023-06-14T05:24:05;17.30;99.90
23100;DHT22;53791;50.696;4.396;2023-06-14T05:26:34;17.40;99.90
23100;DHT22;53791;50.696;4.396;2023-06-14T05:29:02;17.40;99.90
23100;DHT22;53791;50.696;4.396;2023-06-14T05:31:34;17.50;99.90
23100;DHT22;53791;50.696;4.396;2023-06-14T05:34:02;17.50;99.90
23100;DHT22;53791;50.696;4.396;2023-06-14T05:36:34;17.70;99.90
23100;DHT22;53791;50.696;4.396;2023-06-14T05:38:58;17.80;99.90
23100;DHT22;53791;50.696;4.396;2023-06-14T05:41:28;17.90;99.90
23100;DHT22;53791;50.696;4.396;2023-06-14T05:43:56;18.00;99.90
23100;DHT22;53791;50.696;4.396;2023-06-14T05:46:26;18.10;99.90
23100;DHT22;53791;50.696;4.396;2023-06-14T05:48:58;18.20;99.90
23100;DHT22;53791;50.696;4.396;2023-06-14T05:51:23;18.30;99.90
23100;DHT22;53791;50.696;4.396;2023-06-14T05:53:51;18.40;99.90
23100;DHT22;53791;50.696;4.396;2023-06-14T05:56:19;18.60;99.90
23100;DHT22;53791;50.696;4.396;2023-06-14T05:58:51;18.70;99.90
23100;DHT22;53791;50.696;4.396;2023-06-14T06:01:17;18.80;99.90
23100;DHT22;53791;50.696;4.396;2023-06-14T06:03:46;19.00;99.90
23100;DHT22;53791;50.696;4.396;2023-06-14T06:06:15;19.20;99.90
23100;DHT22;53791;50.696;4.396;2023-06-14T06:08:44;19.20;99.90
23100;DHT22;53791;50.696;4.396;2023-06-14T06:11:18;19.40;99.90
23100;DHT22;53791;50.696;4.396;2023-06-14T06:13:45;19.50;99.90
23100;DHT22;53791;50.696;4.396;2023-06-14T06:16:15;19.60;99.90
23100;DHT22;53791;50.696;4.396;2023-06-14T06:18:42;19.70;99.90
23100;DHT22;53791;50.696;4.396;2023-06-14T06:21:14;19.80;99.90
23100;DHT22;53791;50.696;4.396;2023-06-14T06:23:42;20.00;99.90
23100;DHT22;53791;50.696;4.396;2023-06-14T06:26:10;20.30;99.90
23100;DHT22;53791;50.696;4.396;2023-06-14T06:28:42;20.50;99.90
23100;DHT22;53791;50.696;4.396;2023-06-14T06:31:08;20.60;99.90
23100;DHT22;53791;50.696;4.396;2023-06-14T06:33:39;20.70;99.90
23100;DHT22;53791;50.696;4.396;2023-06-14T06:36:11;20.80;99.90
23100;DHT22;53791;50.696;4.396;2023-06-14T06:38:39;21.10;99.90
23100;DHT22;53791;50.696;4.396;2023-06-14T06:41:08;21.40;99.90
23100;DHT22;53791;50.696;4.396;2023-06-14T06:43:36;21.70;99.90
23100;DHT22;53791;50.696;4.396;2023-06-14T06:46:03;21.90;99.90
23100;DHT22;53791;50.696;4.396;2023-06-14T06:51:01;21.90;99.90
23100;DHT22;53791;50.696;4.396;2023-06-14T06:53:29;21.80;99.90
23100;DHT22;53791;50.696;4.396;2023-06-14T06:55:58;21.90;99.90
23100;DHT22;53791;50.696;4.396;2023-06-14T06:58:26;22.10;99.90
23100;DHT22;53791;50.696;4.396;2023-06-14T07:00:53;22.10;99.90
23100;DHT22;53791;50.696;4.396;2023-06-14T07:03:21;22.30;99.90
23100;DHT22;53791;50.696;4.396;2023-06-14T07:05:49;22.60;99.90
23100;DHT22;53791;50.696;4.396;2023-06-14T07:08:17;22.70;99.90
23100;DHT22;53791;50.696;4.396;2023-06-14T07:10:44;22.80;99.90
23100;DHT22;53791;50.696;4.396;2023-06-14T07:13:14;22.90;99.90
23100;DHT22;53791;50.696;4.396;2023-06-14T07:15:43;23.20;99.90
23100;DHT22;53791;50.696;4.396;2023-06-14T07:18:14;23.50;99.90
23100;DHT22;53791;50.696;4.396;2023-06-14T07:20:40;23.50;99.90
23100;DHT22;53791;50.696;4.396;2023-06-14T07:23:09;23.60;99.90
23100;DHT22;53791;50.696;4.396;2023-06-14T07:25:37;23.30;99.90
23100;DHT22;53791;50.696;4.396;2023-06-14T07:28:04;23.10;99.90
23100;DHT22;53791;50.696;4.396;2023-06-14T07:30:32;23.10;99.90
23100;DHT22;53791;50.696;4.396;2023-06-14T07:33:04;23.40;99.90
23100;DHT22;53791;50.696;4.396;2023-06-14T07:35:28;23.60;99.90
23100;DHT22;53791;50.696;4.396;2023-06-14T07:37:56;23.90;99.90
23100;DHT22;53791;50.696;4.396;2023-06-14T07:40:24;24.20;99.90
23100;DHT22;53791;50.696;4.396;2023-06-14T07:42:51;24.40;99.90
23100;DHT22;53791;50.696;4.396;2023-06-14T07:45:20;24.60;99.90
23100;DHT22;53791;50.696;4.396;2023-06-14T07:47:48;24.70;99.90
23100;DHT22;53791;50.696;4.396;2023-06-14T07:50:16;24.80;99.90
23100;DHT22;53791;50.696;4.396;2023-06-14T07:52:44;24.90;99.90
23100;DHT22;53791;50.696;4.396;2023-06-14T07:55:13;25.20;99.90
23100;DHT22;53791;50.696;4.396;2023-06-14T07:57:41;25.30;99.90
23100;DHT22;53791;50.696;4.396;2023-06-14T08:00:11;25.30;99.90
23100;DHT22;53791;50.696;4.396;2023-06-14T08:02:45;25.40;99.90
23100;DHT22;53791;50.696;4.396;2023-06-14T08:05:10;25.40;99.90
23100;DHT22;53791;50.696;4.396;2023-06-14T08:07:39;25.20;99.90
23100;DHT22;53791;50.696;4.396;2023-06-14T08:10:07;25.20;99.90
23100;DHT22;53791;50.696;4.396;2023-06-14T08:12:35;25.60;99.90
23100;DHT22;53791;50.696;4.396;2023-06-14T08:15:04;26.00;99.90
23100;DHT22;53791;50.696;4.396;2023-06-14T08:17:36;26.30;99.90
23100;DHT22;53791;50.696;4.396;2023-06-14T08:20:03;26.30;99.90
23100;DHT22;53791;50.696;4.396;2023-06-14T08:22:34;26.40;99.90
23100;DHT22;53791;50.696;4.396;2023-06-14T08:25:02;26.10;99.90
23100;DHT22;53791;50.696;4.396;2023-06-14T08:27:30;26.30;99.90
23100;DHT22;53791;50.696;4.396;2023-06-14T08:29:58;26.70;99.90
23100;DHT22;53791;50.696;4.396;2023-06-14T08:32:25;27.00;99.90
23100;DHT22;53791;50.696;4.396;2023-06-14T08:34:53;27.30;99.90
23100;DHT22;53791;50.696;4.396;2023-06-14T08:37:21;27.40;99.90
23100;DHT22;53791;50.696;4.396;2023-06-14T08:39:48;27.60;99.90
23100;DHT22;53791;50.696;4.396;2023-06-14T08:42:16;27.70;99.90
23100;DHT22;53791;50.696;4.396;2023-06-14T08:44:47;27.60;99.90
23100;DHT22;53791;50.696;4.396;2023-06-14T08:47:15;27.90;99.90
23100;DHT22;53791;50.696;4.396;2023-06-14T08:49:46;27.80;99.90
23100;DHT22;53791;50.696;4.396;2023-06-14T08:52:20;28.10;99.90
23100;DHT22;53791;50.696;4.396;2023-06-14T08:54:47;28.10;99.90
23100;DHT22;53791;50.696;4.396;2023-06-14T08:57:15;27.80;99.90
23100;DHT22;53791;50.696;4.396;2023-06-14T08:59:47;28.00;99.90
23100;DHT22;53791;50.696;4.396;2023-06-14T09:02:19;28.20;99.90
23100;DHT22;53791;50.696;4.396;2023-06-14T09:04:48;28.10;99.90
23100;DHT22;53791;50.696;4.396;2023-06-14T09:07:16;28.30;99.90
23100;DHT22;53791;50.696;4.396;2023-06-14T09:09:45;28.10;99.90
23100;DHT22;53791;50.696;4.396;2023-06-14T09:12:13;28.20;99.90
23100;DHT22;53791;50.696;4.396;2023-06-14T09:14:40;28.50;99.90
23100;DHT22;53791;50.696;4.396;2023-06-14T09:17:08;28.70;99.90
23100;DHT22;53791;50.696;4.396;2023-06-14T09:19:37;28.90;99.90
23100;DHT22;53791;50.696;4.396;2023-06-14T09:22:05;29.10;99.90
23100;DHT22;53791;50.696;4.396;2023-06-14T09:24:33;29.10;99.90
23100;DHT22;53791;50.696;4.396;2023-06-14T09:27:02;29.10;99.90
23100;DHT22;53791;50.696;4.396;2023-06-14T09:29:30;29.30;99.90
23100;DHT22;53791;50.696;4.396;2023-06-14T09:31:58;29.30;99.90
23100;DHT22;53791;50.696;4.396;2023-06-14T09:34:26;29.40;99.90
23100;DHT22;53791;50.696;4.396;2023-06-14T09:36:54;29.30;99.90
23100;DHT22;53791;50.696;4.396;2023-06-14T09:39:23;29.30;99.90
23100;DHT22;53791;50.696;4.396;2023-06-14T09:41:51;29.30;99.90
23100;DHT22;53791;50.696;4.396;2023-06-14T09:44:24;29.30;99.90
23100;DHT22;53791;50.696;4.396;2023-06-14T09:46:51;29.20;99.90
23100;DHT22;53791;50.696;4.396;2023-06-14T09:49:18;29.10;99.90
23100;DHT22;53791;50.696;4.396;2023-06-14T09:51:49;28.90;99.90
23100;DHT22;53791;50.696;4.396;2023-06-14T09:54:20;28.70;99.90
23100;DHT22;53791;50.696;4.396;2023-06-14T09:56:48;28.90;99.90
23100;DHT22;53791;50.696;4.396;2023-06-14T09:59:24;29.10;99.90
23100;DHT22;53791;50.696;4.396;2023-06-14T10:01:54;29.40;99.90
23100;DHT22;53791;50.696;4.396;2023-06-14T10:04:23;29.40;99.90
23100;DHT22;53791;50.696;4.396;2023-06-14T10:06:52;29.50;99.90
23100;DHT22;53791;50.696;4.396;2023-06-14T10:09:21;29.70;99.90
23100;DHT22;53791;50.696;4.396;2023-06-14T10:11:49;29.50;99.90
23100;DHT22;53791;50.696;4.396;2023-06-14T10:14:17;29.60;99.90
23100;DHT22;53791;50.696;4.396;2023-06-14T10:17:03;29.60;99.90
23100;DHT22;53791;50.696;4.396;2023-06-14T10:19:48;29.80;99.90
23100;DHT22;53791;50.696;4.396;2023-06-14T10:22:14;29.30;99.90
23100;DHT22;53791;50.696;4.396;2023-06-14T10:24:43;28.80;99.90
23100;DHT22;53791;50.696;4.396;2023-06-14T10:27:15;28.40;99.90
23100;DHT22;53791;50.696;4.396;2023-06-14T10:32:27;28.20;99.90
23100;DHT22;53791;50.696;4.396;2023-06-14T10:35:06;28.50;99.90
23100;DHT22;53791;50.696;4.396;2023-06-14T10:37:34;28.60;99.90
23100;DHT22;53791;50.696;4.396;2023-06-14T10:40:03;28.80;99.90
23100;DHT22;53791;50.696;4.396;2023-06-14T10:42:32;29.00;99.90
23100;DHT22;53791;50.696;4.396;2023-06-14T10:45:00;29.10;99.90
23100;DHT22;53791;50.696;4.396;2023-06-14T10:47:30;29.20;99.90
23100;DHT22;53791;50.696;4.396;2023-06-14T10:50:06;29.20;99.90
23100;DHT22;53791;50.696;4.396;2023-06-14T10:52:39;29.50;99.90
23100;DHT22;53791;50.696;4.396;2023-06-14T10:55:17;29.70;99.90
23100;DHT22;53791;50.696;4.396;2023-06-14T11:00:16;29.80;99.90
23100;DHT22;53791;50.696;4.396;2023-06-14T11:05:56;30.30;99.90
23100;DHT22;53791;50.696;4.396;2023-06-14T11:09:09;30.60;99.90
23100;DHT22;53791;50.696;4.396;2023-06-14T11:11:35;30.60;99.90
23100;DHT22;53791;50.696;4.396;2023-06-14T11:14:05;30.70;99.90
23100;DHT22;53791;50.696;4.396;2023-06-14T11:16:33;30.00;99.90
23100;DHT22;53791;50.696;4.396;2023-06-14T11:19:05;29.60;99.90
23100;DHT22;53791;50.696;4.396;2023-06-14T11:21:32;29.20;99.90
23100;DHT22;53791;50.696;4.396;2023-06-14T11:24:00;28.90;99.90
23100;DHT22;53791;50.696;4.396;2023-06-14T11:26:34;28.80;99.90
23100;DHT22;53791;50.696;4.396;2023-06-14T11:29:02;28.80;99.90
23100;DHT22;53791;50.696;4.396;2023-06-14T11:31:30;28.80;99.90
23100;DHT22;53791;50.696;4.396;2023-06-14T11:33:59;28.40;99.90
23100;DHT22;53791;50.696;4.396;2023-06-14T11:36:28;28.10;99.90
23100;DHT22;53791;50.696;4.396;2023-06-14T11:39:05;28.10;99.90
23100;DHT22;53791;50.696;4.396;2023-06-14T11:41:48;28.30;99.90
23100;DHT22;53791;50.696;4.396;2023-06-14T11:44:16;28.50;99.90
23100;DHT22;53791;50.696;4.396;2023-06-14T11:46:45;28.70;99.90
23100;DHT22;53791;50.696;4.396;2023-06-14T11:49:15;28.90;99.90
23100;DHT22;53791;50.696;4.396;2023-06-14T11:51:43;29.00;99.90
23100;DHT22;53791;50.696;4.396;2023-06-14T11:56:53;28.60;99.90
23100;DHT22;53791;50.696;4.396;2023-06-14T11:59:21;28.50;99.90
23100;DHT22;53791;50.696;4.396;2023-06-14T12:01:48;28.50;99.90
23100;DHT22;53791;50.696;4.396;2023-06-14T12:04:24;28.30;99.90
23100;DHT22;53791;50.696;4.396;2023-06-14T12:06:49;28.20;99.90
23100;DHT22;53791;50.696;4.396;2023-06-14T12:09:18;28.30;99.90
23100;DHT22;53791;50.696;4.396;2023-06-14T12:11:46;28.30;99.90
23100;DHT22;53791;50.696;4.396;2023-06-14T12:14:15;28.40;99.90
23100;DHT22;53791;50.696;4.396;2023-06-14T12:19:41;28.50;99.90
23100;DHT22;53791;50.696;4.396;2023-06-14T12:22:03;28.50;99.90
23100;DHT22;53791;50.696;4.396;2023-06-14T12:24:32;28.20;99.90
23100;DHT22;53791;50.696;4.396;2023-06-14T12:27:02;28.20;99.90
23100;DHT22;53791;50.696;4.396;2023-06-14T12:29:31;28.50;99.90
23100;DHT22;53791;50.696;4.396;2023-06-14T12:31:59;28.40;99.90
23100;DHT22;53791;50.696;4.396;2023-06-14T12:34:28;28.20;99.90
23100;DHT22;53791;50.696;4.396;2023-06-14T12:36:57;28.10;99.90
23100;DHT22;53791;50.696;4.396;2023-06-14T12:39:25;28.10;99.90
23100;DHT22;53791;50.696;4.396;2023-06-14T12:41:52;28.00;99.90
23100;DHT22;53791;50.696;4.396;2023-06-14T12:44:20;28.00;99.90
23100;DHT22;53791;50.696;4.396;2023-06-14T12:46:48;28.10;99.90
23100;DHT22;53791;50.696;4.396;2023-06-14T12:49:17;28.30;99.90
23100;DHT22;53791;50.696;4.396;2023-06-14T12:51:46;28.60;99.90
23100;DHT22;53791;50.696;4.396;2023-06-14T12:54:14;28.80;99.90
23100;DHT22;53791;50.696;4.396;2023-06-14T12:56:42;28.50;99.90
23100;DHT22;53791;50.696;4.396;2023-06-14T12:59:11;28.40;99.90
23100;DHT22;53791;50.696;4.396;2023-06-14T13:01:39;28.20;99.90
23100;DHT22;53791;50.696;4.396;2023-06-14T13:04:08;28.20;99.90
23100;DHT22;53791;50.696;4.396;2023-06-14T13:06:36;28.30;99.90
23100;DHT22;53791;50.696;4.396;2023-06-14T13:09:05;28.40;99.90
23100;DHT22;53791;50.696;4.396;2023-06-14T13:11:36;28.50;99.90
23100;DHT22;53791;50.696;4.396;2023-06-14T13:14:05;29.00;99.90
23100;DHT22;53791;50.696;4.396;2023-06-14T13:16:32;29.60;99.90
23100;DHT22;53791;50.696;4.396;2023-06-14T13:19:01;29.80;99.90
23100;DHT22;53791;50.696;4.396;2023-06-14T13:21:31;29.90;99.90
23100;DHT22;53791;50.696;4.396;2023-06-14T13:24:01;29.60;99.90
23100;DHT22;53791;50.696;4.396;2023-06-14T13:26:29;29.50;99.90
23100;DHT22;53791;50.696;4.396;2023-06-14T13:29:02;29.10;99.90
23100;DHT22;53791;50.696;4.396;2023-06-14T13:31:26;28.80;99.90
23100;DHT22;53791;50.696;4.396;2023-06-14T13:33:53;29.20;99.90
23100;DHT22;53791;50.696;4.396;2023-06-14T13:36:23;29.20;99.90
23100;DHT22;53791;50.696;4.396;2023-06-14T13:38:52;29.20;99.90
23100;DHT22;53791;50.696;4.396;2023-06-14T13:41:21;29.10;99.90
23100;DHT22;53791;50.696;4.396;2023-06-14T13:43:49;29.30;99.90
23100;DHT22;53791;50.696;4.396;2023-06-14T13:46:16;29.10;99.90
23100;DHT22;53791;50.696;4.396;2023-06-14T13:48:48;28.80;99.90
23100;DHT22;53791;50.696;4.396;2023-06-14T13:51:18;28.80;99.90
23100;DHT22;53791;50.696;4.396;2023-06-14T13:53:48;29.00;99.90
23100;DHT22;53791;50.696;4.396;2023-06-14T13:56:17;29.30;99.90
23100;DHT22;53791;50.696;4.396;2023-06-14T13:58:45;29.20;99.90
23100;DHT22;53791;50.696;4.396;2023-06-14T14:01:12;29.10;99.90
23100;DHT22;53791;50.696;4.396;2023-06-14T14:03:40;28.90;99.90
23100;DHT22;53791;50.696;4.396;2023-06-14T14:06:08;28.50;99.90
23100;DHT22;53791;50.696;4.396;2023-06-14T14:08:36;28.20;99.90
23100;DHT22;53791;50.696;4.396;2023-06-14T14:11:04;28.20;99.90
23100;DHT22;53791;50.696;4.396;2023-06-14T14:13:37;28.30;99.90
23100;DHT22;53791;50.696;4.396;2023-06-14T14:16:03;28.40;99.90
23100;DHT22;53791;50.696;4.396;2023-06-14T14:18:31;28.60;99.90
23100;DHT22;53791;50.696;4.396;2023-06-14T14:20:59;29.00;99.90
23100;DHT22;53791;50.696;4.396;2023-06-14T14:23:27;28.80;99.90
23100;DHT22;53791;50.696;4.396;2023-06-14T14:25:54;29.20;99.90
23100;DHT22;53791;50.696;4.396;2023-06-14T14:28:27;29.60;99.90
23100;DHT22;53791;50.696;4.396;2023-06-14T14:30:54;29.90;99.90
23100;DHT22;53791;50.696;4.396;2023-06-14T14:33:23;30.30;99.90
23100;DHT22;53791;50.696;4.396;2023-06-14T14:35:51;30.30;99.90
23100;DHT22;53791;50.696;4.396;2023-06-14T14:38:19;30.30;99.90
23100;DHT22;53791;50.696;4.396;2023-06-14T14:40:46;30.30;99.90
23100;DHT22;53791;50.696;4.396;2023-06-14T14:43:14;30.30;99.90
23100;DHT22;53791;50.696;4.396;2023-06-14T14:45:41;29.70;99.90
23100;DHT22;53791;50.696;4.396;2023-06-14T14:48:10;29.80;99.90
23100;DHT22;53791;50.696;4.396;2023-06-14T14:50:38;29.40;99.90
23100;DHT22;53791;50.696;4.396;2023-06-14T14:53:09;29.40;99.90
23100;DHT22;53791;50.696;4.396;2023-06-14T14:55:38;29.10;99.90
23100;DHT22;53791;50.696;4.396;2023-06-14T14:58:06;29.20;99.90
23100;DHT22;53791;50.696;4.396;2023-06-14T15:00:34;29.20;99.90
23100;DHT22;53791;50.696;4.396;2023-06-14T15:03:04;28.80;99.90
23100;DHT22;53791;50.696;4.396;2023-06-14T15:05:31;28.50;99.90
23100;DHT22;53791;50.696;4.396;2023-06-14T15:08:00;28.80;99.90
23100;DHT22;53791;50.696;4.396;2023-06-14T15:10:31;28.60;99.90
23100;DHT22;53791;50.696;4.396;2023-06-14T15:12:58;28.50;99.90
23100;DHT22;53791;50.696;4.396;2023-06-14T15:15:26;28.60;99.90
23100;DHT22;53791;50.696;4.396;2023-06-14T15:17:55;28.50;99.90
23100;DHT22;53791;50.696;4.396;2023-06-14T15:20:25;28.90;99.90
23100;DHT22;53791;50.696;4.396;2023-06-14T15:22:53;28.70;99.90
23100;DHT22;53791;50.696;4.396;2023-06-14T15:25:22;28.80;99.90
23100;DHT22;53791;50.696;4.396;2023-06-14T15:27:50;28.70;99.90
23100;DHT22;53791;50.696;4.396;2023-06-14T15:30:17;28.60;99.90
23100;DHT22;53791;50.696;4.396;2023-06-14T15:32:45;28.60;99.90
23100;DHT22;53791;50.696;4.396;2023-06-14T15:35:13;28.50;99.90
23100;DHT22;53791;50.696;4.396;2023-06-14T15:37:40;28.40;99.90
23100;DHT22;53791;50.696;4.396;2023-06-14T15:40:12;28.60;99.90
23100;DHT22;53791;50.696;4.396;2023-06-14T15:42:40;28.60;99.90
23100;DHT22;53791;50.696;4.396;2023-06-14T15:45:08;28.50;99.90
23100;DHT22;53791;50.696;4.396;2023-06-14T15:47:35;28.40;99.90
23100;DHT22;53791;50.696;4.396;2023-06-14T15:50:08;28.70;99.90
23100;DHT22;53791;50.696;4.396;2023-06-14T15:52:35;28.60;99.90
23100;DHT22;53791;50.696;4.396;2023-06-14T15:55:05;28.50;99.90
23100;DHT22;53791;50.696;4.396;2023-06-14T15:57:32;28.50;99.90
23100;DHT22;53791;50.696;4.396;2023-06-14T16:00:00;28.20;99.90